Emu Arrow — C6OR4 — position and weather

sailwx.info

Track history (hours):
 
Tides and Currents Weather Stations Pressure Air Temp Water Temp Dewpoint Dewpoint Depression Visibility Wind Speed Wind Dir Waves Ship Positions

Emu Arrow

Last reported at 2017-Feb-09 22:33 UTC. Time now 2017-Feb-21 21:42 UTC.
Position N 01°16' E 103°60'.
Warning: this ship's position is 11 days out of date.

Length 200 m; draft 12.7 m.

Type: Cargo ship. MMSI: 309805000.

Date/timePositionNaut miles runAvg speedWind from/ knotsBaromVisibWave heightAir tempDewpointWater temp
2017-Feb-09 22:33N 01°16' E 103°60'3 2.5
2017-Feb-09 21:32N 01°17' E 103°57'0 0.0
2017-Feb-09 20:32N 01°17' E 103°57'0 0.0
2017-Feb-09 19:32N 01°17' E 103°57'0 0.0
2017-Feb-09 18:26N 01°17' E 103°57'0 0.0
2017-Feb-09 17:32N 01°17' E 103°57'0 0.0
2017-Feb-09 16:26N 01°17' E 103°57'0 0.0
2017-Feb-09 15:32N 01°17' E 103°57'0 0.0
2017-Feb-09 14:33N 01°17' E 103°57'0 0.0
2017-Feb-09 13:33N 01°17' E 103°57'0 0.0
2017-Feb-09 12:33N 01°17' E 103°57'0 0.4
2017-Feb-09 11:33N 01°17' E 103°57'2 2.0
2017-Feb-09 10:33N 01°15' E 103°57'2 1.7
2017-Feb-09 09:33N 01°14' E 103°57'5 5.0
2017-Feb-09 08:33N 01°12' E 103°52'6 5.8
2017-Feb-09 07:33N 01°09' E 103°47'44 7.2
2017-Feb-09 01:25N 01°26' E 103°06'2010.3
2017-Feb-08 23:29N 01°36' E 102°49'1512.3
2017-Feb-08 22:18N 01°42' E 102°36'912.4
2017-Feb-08 21:33N 01°46' E 102°28'1312.1
2017-Feb-08 20:30N 01°52' E 102°16'1111.6
2017-Feb-08 19:33N 01°59' E 102°08'  
Track history (hours):
 
Tides and Currents Weather Stations Pressure Air Temp Water Temp Dewpoint Dewpoint Depression Visibility Wind Speed Wind Dir Waves Ship Positions

Emu Arrow

Last reported at 2017-Feb-09 22:33 UTC. Time now 2017-Feb-21 21:42 UTC.
Position N 01°16' E 103°60'.
Warning: this ship's position is 11 days out of date.

Length 200 m; draft 12.7 m.

Type: Cargo ship. MMSI: 309805000.

Date/timePositionNaut miles runAvg speedWind from/ knotsBaromVisibWave heightAir tempDewpointWater temp
2017-Feb-09 22:33N 01°16' E 103°60'3 2.5
2017-Feb-09 21:32N 01°17' E 103°57'0 0.0
2017-Feb-09 20:32N 01°17' E 103°57'0 0.0
2017-Feb-09 19:32N 01°17' E 103°57'0 0.0
2017-Feb-09 18:26N 01°17' E 103°57'0 0.0
2017-Feb-09 17:32N 01°17' E 103°57'0 0.0
2017-Feb-09 16:26N 01°17' E 103°57'0 0.0
2017-Feb-09 15:32N 01°17' E 103°57'0 0.0
2017-Feb-09 14:33N 01°17' E 103°57'0 0.0
2017-Feb-09 13:33N 01°17' E 103°57'0 0.0
2017-Feb-09 12:33N 01°17' E 103°57'0 0.4
2017-Feb-09 11:33N 01°17' E 103°57'2 2.0
2017-Feb-09 10:33N 01°15' E 103°57'2 1.7
2017-Feb-09 09:33N 01°14' E 103°57'5 5.0
2017-Feb-09 08:33N 01°12' E 103°52'6 5.8
2017-Feb-09 07:33N 01°09' E 103°47'44 7.2
2017-Feb-09 01:25N 01°26' E 103°06'2010.3
2017-Feb-08 23:29N 01°36' E 102°49'1512.3
2017-Feb-08 22:18N 01°42' E 102°36'912.4
2017-Feb-08 21:33N 01°46' E 102°28'1312.1
2017-Feb-08 20:30N 01°52' E 102°16'1111.6
2017-Feb-08 19:33N 01°59' E 102°08'  

Dump ship's entire track history